sensor_id;sensor_type;location;lat;lon;timestamp;P1;durP1;ratioP1;P2;durP2;ratioP2
49472;SDS011;67434;50.956;6.918;2023-07-31T00:01:25;4.13;;;1.30;;
49472;SDS011;67434;50.956;6.918;2023-07-31T00:03:50;5.63;;;1.73;;
49472;SDS011;67434;50.956;6.918;2023-07-31T00:06:16;3.93;;;1.60;;
49472;SDS011;67434;50.956;6.918;2023-07-31T00:08:41;7.60;;;1.95;;
49472;SDS011;67434;50.956;6.918;2023-07-31T00:11:06;10.52;;;2.40;;
49472;SDS011;67434;50.956;6.918;2023-07-31T00:13:32;8.60;;;2.10;;
49472;SDS011;67434;50.956;6.918;2023-07-31T00:15:57;5.55;;;1.73;;
49472;SDS011;67434;50.956;6.918;2023-07-31T00:18:22;12.68;;;2.75;;
49472;SDS011;67434;50.956;6.918;2023-07-31T00:20:47;6.27;;;1.93;;
49472;SDS011;67434;50.956;6.918;2023-07-31T00:23:13;7.55;;;2.13;;
49472;SDS011;67434;50.956;6.918;2023-07-31T00:25:39;4.95;;;2.30;;
49472;SDS011;67434;50.956;6.918;2023-07-31T00:28:04;7.30;;;2.33;;
49472;SDS011;67434;50.956;6.918;2023-07-31T00:30:29;7.20;;;1.88;;
49472;SDS011;67434;50.956;6.918;2023-07-31T00:32:55;6.53;;;2.10;;
49472;SDS011;67434;50.956;6.918;2023-07-31T00:35:20;5.18;;;2.20;;
49472;SDS011;67434;50.956;6.918;2023-07-31T00:37:45;5.38;;;1.65;;
49472;SDS011;67434;50.956;6.918;2023-07-31T00:40:10;5.40;;;1.73;;
49472;SDS011;67434;50.956;6.918;2023-07-31T00:42:54;5.95;;;1.58;;
49472;SDS011;67434;50.956;6.918;2023-07-31T00:45:20;6.07;;;1.50;;
49472;SDS011;67434;50.956;6.918;2023-07-31T00:47:48;3.45;;;1.80;;
49472;SDS011;67434;50.956;6.918;2023-07-31T00:50:13;6.45;;;2.10;;
49472;SDS011;67434;50.956;6.918;2023-07-31T00:52:42;4.10;;;1.75;;
49472;SDS011;67434;50.956;6.918;2023-07-31T00:55:08;6.43;;;1.95;;
49472;SDS011;67434;50.956;6.918;2023-07-31T00:57:33;4.18;;;1.98;;
49472;SDS011;67434;50.956;6.918;2023-07-31T00:59:59;4.10;;;1.60;;
49472;SDS011;67434;50.956;6.918;2023-07-31T01:02:25;3.70;;;1.33;;
49472;SDS011;67434;50.956;6.918;2023-07-31T01:05:02;7.60;;;1.35;;
49472;SDS011;67434;50.956;6.918;2023-07-31T01:07:49;4.32;;;1.50;;
49472;SDS011;67434;50.956;6.918;2023-07-31T01:10:21;6.53;;;1.50;;
49472;SDS011;67434;50.956;6.918;2023-07-31T01:12:47;4.85;;;1.77;;
49472;SDS011;67434;50.956;6.918;2023-07-31T01:15:13;5.18;;;1.40;;
49472;SDS011;67434;50.956;6.918;2023-07-31T01:17:42;4.80;;;1.50;;
49472;SDS011;67434;50.956;6.918;2023-07-31T01:20:12;2.95;;;1.27;;
49472;SDS011;67434;50.956;6.918;2023-07-31T01:25:20;7.47;;;2.17;;
49472;SDS011;67434;50.956;6.918;2023-07-31T01:28:05;9.32;;;2.28;;
49472;SDS011;67434;50.956;6.918;2023-07-31T01:30:33;5.70;;;1.70;;
49472;SDS011;67434;50.956;6.918;2023-07-31T01:33:03;6.72;;;1.50;;
49472;SDS011;67434;50.956;6.918;2023-07-31T01:35:36;4.18;;;1.52;;
49472;SDS011;67434;50.956;6.918;2023-07-31T01:38:02;4.95;;;1.67;;
49472;SDS011;67434;50.956;6.918;2023-07-31T01:40:30;8.27;;;1.88;;
49472;SDS011;67434;50.956;6.918;2023-07-31T01:42:55;6.93;;;1.80;;
49472;SDS011;67434;50.956;6.918;2023-07-31T01:45:21;5.25;;;2.30;;
49472;SDS011;67434;50.956;6.918;2023-07-31T01:47:46;3.17;;;1.55;;
49472;SDS011;67434;50.956;6.918;2023-07-31T01:50:11;4.70;;;0.95;;
49472;SDS011;67434;50.956;6.918;2023-07-31T01:52:37;6.57;;;1.67;;
49472;SDS011;67434;50.956;6.918;2023-07-31T01:55:02;9.38;;;1.85;;
49472;SDS011;67434;50.956;6.918;2023-07-31T01:57:27;6.82;;;1.70;;
49472;SDS011;67434;50.956;6.918;2023-07-31T01:59:53;7.35;;;2.75;;
49472;SDS011;67434;50.956;6.918;2023-07-31T02:02:18;8.57;;;2.00;;
49472;SDS011;67434;50.956;6.918;2023-07-31T02:04:44;3.70;;;1.40;;
49472;SDS011;67434;50.956;6.918;2023-07-31T02:07:09;4.72;;;1.52;;
49472;SDS011;67434;50.956;6.918;2023-07-31T02:09:37;6.57;;;1.58;;
49472;SDS011;67434;50.956;6.918;2023-07-31T02:12:02;5.88;;;2.28;;
49472;SDS011;67434;50.956;6.918;2023-07-31T02:14:28;4.38;;;1.73;;
49472;SDS011;67434;50.956;6.918;2023-07-31T02:16:53;3.70;;;1.50;;
49472;SDS011;67434;50.956;6.918;2023-07-31T02:19:18;7.35;;;2.58;;
49472;SDS011;67434;50.956;6.918;2023-07-31T02:21:43;6.65;;;2.05;;
49472;SDS011;67434;50.956;6.918;2023-07-31T02:24:09;5.13;;;2.38;;
49472;SDS011;67434;50.956;6.918;2023-07-31T02:26:35;8.82;;;2.22;;
49472;SDS011;67434;50.956;6.918;2023-07-31T02:29:00;5.32;;;2.17;;
49472;SDS011;67434;50.956;6.918;2023-07-31T02:31:25;4.15;;;1.80;;
49472;SDS011;67434;50.956;6.918;2023-07-31T02:33:51;4.40;;;1.37;;
49472;SDS011;67434;50.956;6.918;2023-07-31T02:36:16;4.45;;;1.50;;
49472;SDS011;67434;50.956;6.918;2023-07-31T02:38:41;8.45;;;1.58;;
49472;SDS011;67434;50.956;6.918;2023-07-31T02:41:06;5.15;;;1.88;;
49472;SDS011;67434;50.956;6.918;2023-07-31T02:43:32;5.93;;;2.35;;
49472;SDS011;67434;50.956;6.918;2023-07-31T02:45:59;4.50;;;2.13;;
49472;SDS011;67434;50.956;6.918;2023-07-31T02:48:24;4.72;;;1.65;;
49472;SDS011;67434;50.956;6.918;2023-07-31T02:50:49;5.97;;;2.63;;
49472;SDS011;67434;50.956;6.918;2023-07-31T02:53:15;5.50;;;1.77;;
49472;SDS011;67434;50.956;6.918;2023-07-31T02:55:40;5.00;;;1.57;;
49472;SDS011;67434;50.956;6.918;2023-07-31T02:58:09;4.30;;;2.20;;
49472;SDS011;67434;50.956;6.918;2023-07-31T03:00:34;5.13;;;1.75;;
49472;SDS011;67434;50.956;6.918;2023-07-31T03:03:00;7.32;;;2.10;;
49472;SDS011;67434;50.956;6.918;2023-07-31T03:05:26;7.93;;;1.88;;
49472;SDS011;67434;50.956;6.918;2023-07-31T03:07:51;5.47;;;2.20;;
49472;SDS011;67434;50.956;6.918;2023-07-31T03:10:16;6.55;;;1.73;;
49472;SDS011;67434;50.956;6.918;2023-07-31T03:12:42;3.03;;;1.42;;
49472;SDS011;67434;50.956;6.918;2023-07-31T03:15:07;6.03;;;1.83;;
49472;SDS011;67434;50.956;6.918;2023-07-31T03:17:33;6.15;;;1.70;;
49472;SDS011;67434;50.956;6.918;2023-07-31T03:20:04;5.22;;;1.92;;
49472;SDS011;67434;50.956;6.918;2023-07-31T03:22:29;5.70;;;2.00;;
49472;SDS011;67434;50.956;6.918;2023-07-31T03:24:55;9.15;;;2.33;;
49472;SDS011;67434;50.956;6.918;2023-07-31T03:27:20;8.80;;;3.22;;
49472;SDS011;67434;50.956;6.918;2023-07-31T03:29:45;4.70;;;1.65;;
49472;SDS011;67434;50.956;6.918;2023-07-31T03:32:11;6.25;;;2.15;;
49472;SDS011;67434;50.956;6.918;2023-07-31T03:34:36;4.93;;;2.20;;
49472;SDS011;67434;50.956;6.918;2023-07-31T03:37:02;6.90;;;2.38;;
49472;SDS011;67434;50.956;6.918;2023-07-31T03:39:29;5.80;;;2.05;;
49472;SDS011;67434;50.956;6.918;2023-07-31T03:41:55;4.70;;;1.98;;
49472;SDS011;67434;50.956;6.918;2023-07-31T03:44:20;4.68;;;1.95;;
49472;SDS011;67434;50.956;6.918;2023-07-31T03:46:45;5.30;;;2.35;;
49472;SDS011;67434;50.956;6.918;2023-07-31T03:49:11;6.18;;;2.13;;
49472;SDS011;67434;50.956;6.918;2023-07-31T03:51:36;5.70;;;1.85;;
49472;SDS011;67434;50.956;6.918;2023-07-31T03:54:01;5.80;;;2.20;;
49472;SDS011;67434;50.956;6.918;2023-07-31T03:56:26;4.32;;;1.83;;
49472;SDS011;67434;50.956;6.918;2023-07-31T03:58:55;5.10;;;2.88;;
49472;SDS011;67434;50.956;6.918;2023-07-31T04:01:20;6.03;;;2.33;;
49472;SDS011;67434;50.956;6.918;2023-07-31T04:03:45;4.47;;;2.40;;
49472;SDS011;67434;50.956;6.918;2023-07-31T04:06:11;3.37;;;2.50;;
49472;SDS011;67434;50.956;6.918;2023-07-31T04:08:36;4.70;;;2.55;;
49472;SDS011;67434;50.956;6.918;2023-07-31T04:11:03;7.07;;;1.95;;
49472;SDS011;67434;50.956;6.918;2023-07-31T04:13:29;4.75;;;2.03;;
49472;SDS011;67434;50.956;6.918;2023-07-31T04:15:54;3.88;;;2.47;;
49472;SDS011;67434;50.956;6.918;2023-07-31T04:18:19;5.63;;;2.03;;
49472;SDS011;67434;50.956;6.918;2023-07-31T04:20:45;4.82;;;2.55;;
49472;SDS011;67434;50.956;6.918;2023-07-31T04:23:10;4.13;;;2.30;;
49472;SDS011;67434;50.956;6.918;2023-07-31T04:25:35;3.87;;;1.80;;
49472;SDS011;67434;50.956;6.918;2023-07-31T04:28:01;4.70;;;2.17;;
49472;SDS011;67434;50.956;6.918;2023-07-31T04:30:26;4.22;;;2.10;;
49472;SDS011;67434;50.956;6.918;2023-07-31T04:32:51;5.75;;;2.53;;
49472;SDS011;67434;50.956;6.918;2023-07-31T04:35:17;4.30;;;2.13;;
49472;SDS011;67434;50.956;6.918;2023-07-31T04:37:42;6.97;;;2.17;;
49472;SDS011;67434;50.956;6.918;2023-07-31T04:40:07;6.82;;;2.70;;
49472;SDS011;67434;50.956;6.918;2023-07-31T04:42:33;5.43;;;2.28;;
49472;SDS011;67434;50.956;6.918;2023-07-31T04:44:59;5.88;;;3.53;;
49472;SDS011;67434;50.956;6.918;2023-07-31T04:47:24;7.95;;;2.45;;
49472;SDS011;67434;50.956;6.918;2023-07-31T04:49:50;5.67;;;2.00;;
49472;SDS011;67434;50.956;6.918;2023-07-31T04:52:15;4.70;;;2.33;;
49472;SDS011;67434;50.956;6.918;2023-07-31T04:54:42;8.57;;;3.30;;
49472;SDS011;67434;50.956;6.918;2023-07-31T04:57:07;6.45;;;2.22;;
49472;SDS011;67434;50.956;6.918;2023-07-31T04:59:32;5.50;;;2.20;;
49472;SDS011;67434;50.956;6.918;2023-07-31T05:01:58;5.90;;;2.20;;
49472;SDS011;67434;50.956;6.918;2023-07-31T05:04:23;4.83;;;2.13;;
49472;SDS011;67434;50.956;6.918;2023-07-31T05:06:48;5.20;;;2.33;;
49472;SDS011;67434;50.956;6.918;2023-07-31T05:09:13;10.23;;;3.33;;
49472;SDS011;67434;50.956;6.918;2023-07-31T05:11:39;5.47;;;2.22;;
49472;SDS011;67434;50.956;6.918;2023-07-31T05:14:05;3.72;;;2.00;;
49472;SDS011;67434;50.956;6.918;2023-07-31T05:16:31;4.20;;;2.35;;
49472;SDS011;67434;50.956;6.918;2023-07-31T05:18:56;4.05;;;2.58;;
49472;SDS011;67434;50.956;6.918;2023-07-31T05:21:21;8.27;;;3.65;;
49472;SDS011;67434;50.956;6.918;2023-07-31T05:23:47;6.43;;;3.13;;
49472;SDS011;67434;50.956;6.918;2023-07-31T05:26:13;4.10;;;2.33;;
49472;SDS011;67434;50.956;6.918;2023-07-31T05:28:38;7.40;;;2.55;;
49472;SDS011;67434;50.956;6.918;2023-07-31T05:31:04;6.88;;;2.38;;
49472;SDS011;67434;50.956;6.918;2023-07-31T05:33:29;8.43;;;2.78;;
49472;SDS011;67434;50.956;6.918;2023-07-31T05:35:58;4.43;;;1.92;;
49472;SDS011;67434;50.956;6.918;2023-07-31T05:38:23;7.87;;;2.17;;
49472;SDS011;67434;50.956;6.918;2023-07-31T05:40:48;6.05;;;2.28;;
49472;SDS011;67434;50.956;6.918;2023-07-31T05:43:16;9.02;;;2.33;;
49472;SDS011;67434;50.956;6.918;2023-07-31T05:45:44;7.80;;;2.77;;
49472;SDS011;67434;50.956;6.918;2023-07-31T05:48:09;9.20;;;5.70;;
49472;SDS011;67434;50.956;6.918;2023-07-31T05:50:34;8.50;;;3.75;;
49472;SDS011;67434;50.956;6.918;2023-07-31T05:52:59;5.50;;;2.75;;
49472;SDS011;67434;50.956;6.918;2023-07-31T05:55:25;10.65;;;2.60;;
49472;SDS011;67434;50.956;6.918;2023-07-31T05:57:53;3.70;;;1.90;;
49472;SDS011;67434;50.956;6.918;2023-07-31T06:00:19;8.52;;;2.17;;
49472;SDS011;67434;50.956;6.918;2023-07-31T06:02:44;8.98;;;4.38;;
49472;SDS011;67434;50.956;6.918;2023-07-31T06:05:11;9.68;;;3.72;;
49472;SDS011;67434;50.956;6.918;2023-07-31T06:07:36;6.50;;;3.20;;
49472;SDS011;67434;50.956;6.918;2023-07-31T06:10:01;5.43;;;2.47;;
49472;SDS011;67434;50.956;6.918;2023-07-31T06:12:30;10.55;;;3.70;;
49472;SDS011;67434;50.956;6.918;2023-07-31T06:14:56;8.25;;;3.50;;
49472;SDS011;67434;50.956;6.918;2023-07-31T06:17:21;3.83;;;2.30;;
49472;SDS011;67434;50.956;6.918;2023-07-31T06:19:47;5.20;;;2.30;;
49472;SDS011;67434;50.956;6.918;2023-07-31T06:22:12;5.28;;;2.85;;
49472;SDS011;67434;50.956;6.918;2023-07-31T06:24:37;5.57;;;2.85;;
49472;SDS011;67434;50.956;6.918;2023-07-31T06:27:03;5.90;;;2.67;;
49472;SDS011;67434;50.956;6.918;2023-07-31T06:29:35;4.82;;;2.40;;
49472;SDS011;67434;50.956;6.918;2023-07-31T06:32:01;5.57;;;2.70;;
49472;SDS011;67434;50.956;6.918;2023-07-31T06:34:26;7.35;;;3.05;;
49472;SDS011;67434;50.956;6.918;2023-07-31T06:36:51;5.77;;;3.13;;
49472;SDS011;67434;50.956;6.918;2023-07-31T06:39:16;6.47;;;2.77;;
49472;SDS011;67434;50.956;6.918;2023-07-31T06:41:42;6.53;;;2.33;;
49472;SDS011;67434;50.956;6.918;2023-07-31T06:44:07;5.97;;;2.50;;
49472;SDS011;67434;50.956;6.918;2023-07-31T06:46:33;5.60;;;3.20;;
49472;SDS011;67434;50.956;6.918;2023-07-31T06:48:58;8.70;;;3.78;;
49472;SDS011;67434;50.956;6.918;2023-07-31T06:51:23;6.35;;;2.35;;
49472;SDS011;67434;50.956;6.918;2023-07-31T06:53:50;5.82;;;2.65;;
49472;SDS011;67434;50.956;6.918;2023-07-31T06:56:16;4.88;;;2.50;;
49472;SDS011;67434;50.956;6.918;2023-07-31T06:58:41;8.32;;;3.10;;
49472;SDS011;67434;50.956;6.918;2023-07-31T07:01:06;6.00;;;2.28;;
49472;SDS011;67434;50.956;6.918;2023-07-31T07:03:32;4.20;;;2.55;;
49472;SDS011;67434;50.956;6.918;2023-07-31T07:05:57;6.32;;;2.70;;
49472;SDS011;67434;50.956;6.918;2023-07-31T07:08:23;6.30;;;2.17;;
49472;SDS011;67434;50.956;6.918;2023-07-31T07:10:48;8.40;;;3.17;;
49472;SDS011;67434;50.956;6.918;2023-07-31T07:13:14;4.70;;;2.40;;
49472;SDS011;67434;50.956;6.918;2023-07-31T07:15:39;5.55;;;2.28;;
49472;SDS011;67434;50.956;6.918;2023-07-31T07:18:04;5.47;;;2.10;;
49472;SDS011;67434;50.956;6.918;2023-07-31T07:20:31;9.32;;;2.72;;
49472;SDS011;67434;50.956;6.918;2023-07-31T07:22:57;5.10;;;2.50;;
49472;SDS011;67434;50.956;6.918;2023-07-31T07:25:22;7.53;;;2.73;;
49472;SDS011;67434;50.956;6.918;2023-07-31T07:27:47;5.73;;;2.30;;
49472;SDS011;67434;50.956;6.918;2023-07-31T07:30:12;5.22;;;2.70;;
49472;SDS011;67434;50.956;6.918;2023-07-31T07:32:39;3.95;;;2.50;;
49472;SDS011;67434;50.956;6.918;2023-07-31T07:35:04;6.55;;;2.30;;
49472;SDS011;67434;50.956;6.918;2023-07-31T07:37:30;9.75;;;2.47;;
49472;SDS011;67434;50.956;6.918;2023-07-31T07:39:55;6.13;;;3.33;;
49472;SDS011;67434;50.956;6.918;2023-07-31T07:42:22;3.83;;;2.42;;
49472;SDS011;67434;50.956;6.918;2023-07-31T07:44:47;6.23;;;2.33;;
49472;SDS011;67434;50.956;6.918;2023-07-31T07:47:12;4.75;;;2.10;;
49472;SDS011;67434;50.956;6.918;2023-07-31T07:49:38;5.73;;;2.87;;
49472;SDS011;67434;50.956;6.918;2023-07-31T07:52:03;7.32;;;3.22;;
49472;SDS011;67434;50.956;6.918;2023-07-31T07:54:28;8.88;;;3.45;;
49472;SDS011;67434;50.956;6.918;2023-07-31T07:56:54;8.52;;;2.70;;
49472;SDS011;67434;50.956;6.918;2023-07-31T07:59:20;6.07;;;2.80;;
49472;SDS011;67434;50.956;6.918;2023-07-31T08:01:45;4.90;;;2.35;;
49472;SDS011;67434;50.956;6.918;2023-07-31T08:04:10;3.63;;;2.27;;
49472;SDS011;67434;50.956;6.918;2023-07-31T08:06:35;5.10;;;1.60;;
49472;SDS011;67434;50.956;6.918;2023-07-31T08:09:00;6.18;;;1.98;;
49472;SDS011;67434;50.956;6.918;2023-07-31T08:11:31;4.03;;;1.85;;
49472;SDS011;67434;50.956;6.918;2023-07-31T08:13:56;5.00;;;2.17;;
49472;SDS011;67434;50.956;6.918;2023-07-31T08:16:21;6.07;;;2.00;;
49472;SDS011;67434;50.956;6.918;2023-07-31T08:18:46;3.93;;;2.30;;
49472;SDS011;67434;50.956;6.918;2023-07-31T08:21:11;4.30;;;2.00;;
49472;SDS011;67434;50.956;6.918;2023-07-31T08:23:37;5.80;;;1.83;;
49472;SDS011;67434;50.956;6.918;2023-07-31T08:26:02;2.65;;;1.55;;
49472;SDS011;67434;50.956;6.918;2023-07-31T08:28:28;4.77;;;1.63;;
49472;SDS011;67434;50.956;6.918;2023-07-31T08:30:53;4.97;;;1.87;;
49472;SDS011;67434;50.956;6.918;2023-07-31T08:33:18;5.50;;;2.00;;
49472;SDS011;67434;50.956;6.918;2023-07-31T08:35:43;3.30;;;1.58;;
49472;SDS011;67434;50.956;6.918;2023-07-31T08:38:09;4.53;;;1.93;;
49472;SDS011;67434;50.956;6.918;2023-07-31T08:40:37;3.25;;;1.90;;
49472;SDS011;67434;50.956;6.918;2023-07-31T08:43:03;3.55;;;1.65;;
49472;SDS011;67434;50.956;6.918;2023-07-31T08:45:28;4.25;;;2.53;;
49472;SDS011;67434;50.956;6.918;2023-07-31T08:47:54;5.38;;;2.00;;
49472;SDS011;67434;50.956;6.918;2023-07-31T08:50:20;4.05;;;1.70;;
49472;SDS011;67434;50.956;6.918;2023-07-31T08:52:50;4.95;;;1.90;;
49472;SDS011;67434;50.956;6.918;2023-07-31T08:55:16;4.05;;;2.30;;
49472;SDS011;67434;50.956;6.918;2023-07-31T08:57:42;6.30;;;1.95;;
49472;SDS011;67434;50.956;6.918;2023-07-31T09:00:08;7.72;;;2.42;;
49472;SDS011;67434;50.956;6.918;2023-07-31T09:04:59;6.47;;;2.13;;
49472;SDS011;67434;50.956;6.918;2023-07-31T09:07:26;6.35;;;2.35;;
49472;SDS011;67434;50.956;6.918;2023-07-31T09:09:52;4.32;;;1.90;;
49472;SDS011;67434;50.956;6.918;2023-07-31T09:12:17;9.48;;;2.88;;
49472;SDS011;67434;50.956;6.918;2023-07-31T09:14:43;8.57;;;2.33;;
49472;SDS011;67434;50.956;6.918;2023-07-31T09:17:09;6.63;;;2.33;;
49472;SDS011;67434;50.956;6.918;2023-07-31T09:19:35;3.70;;;2.72;;
49472;SDS011;67434;50.956;6.918;2023-07-31T09:22:03;6.72;;;1.77;;
49472;SDS011;67434;50.956;6.918;2023-07-31T09:24:29;7.13;;;1.65;;
49472;SDS011;67434;50.956;6.918;2023-07-31T09:27:02;3.38;;;1.63;;
49472;SDS011;67434;50.956;6.918;2023-07-31T09:29:28;3.67;;;1.70;;
49472;SDS011;67434;50.956;6.918;2023-07-31T09:31:54;6.80;;;2.28;;
49472;SDS011;67434;50.956;6.918;2023-07-31T09:34:30;3.67;;;1.35;;
49472;SDS011;67434;50.956;6.918;2023-07-31T09:37:01;5.30;;;1.85;;
49472;SDS011;67434;50.956;6.918;2023-07-31T09:39:26;5.45;;;2.25;;
49472;SDS011;67434;50.956;6.918;2023-07-31T09:41:55;3.67;;;1.67;;
49472;SDS011;67434;50.956;6.918;2023-07-31T09:44:20;4.80;;;1.40;;
49472;SDS011;67434;50.956;6.918;2023-07-31T09:46:46;6.82;;;1.70;;
49472;SDS011;67434;50.956;6.918;2023-07-31T09:49:13;4.53;;;1.67;;
49472;SDS011;67434;50.956;6.918;2023-07-31T09:51:40;3.67;;;1.23;;
49472;SDS011;67434;50.956;6.918;2023-07-31T09:54:08;3.47;;;1.20;;
49472;SDS011;67434;50.956;6.918;2023-07-31T09:56:34;5.32;;;1.35;;
49472;SDS011;67434;50.956;6.918;2023-07-31T09:59:01;5.07;;;2.00;;
49472;SDS011;67434;50.956;6.918;2023-07-31T10:01:26;3.50;;;1.45;;
49472;SDS011;67434;50.956;6.918;2023-07-31T10:03:58;4.63;;;2.05;;
49472;SDS011;67434;50.956;6.918;2023-07-31T10:06:24;5.43;;;1.92;;
49472;SDS011;67434;50.956;6.918;2023-07-31T10:08:50;3.20;;;1.80;;
49472;SDS011;67434;50.956;6.918;2023-07-31T10:11:17;6.50;;;1.50;;
49472;SDS011;67434;50.956;6.918;2023-07-31T10:13:42;7.67;;;2.73;;
49472;SDS011;67434;50.956;6.918;2023-07-31T10:16:08;4.72;;;1.88;;
49472;SDS011;67434;50.956;6.918;2023-07-31T10:18:34;3.67;;;1.60;;
49472;SDS011;67434;50.956;6.918;2023-07-31T10:21:00;3.97;;;1.70;;
49472;SDS011;67434;50.956;6.918;2023-07-31T10:23:32;3.65;;;1.40;;
49472;SDS011;67434;50.956;6.918;2023-07-31T10:25:57;2.03;;;1.23;;
49472;SDS011;67434;50.956;6.918;2023-07-31T10:28:23;3.22;;;1.90;;
49472;SDS011;67434;50.956;6.918;2023-07-31T10:30:49;6.22;;;2.83;;
49472;SDS011;67434;50.956;6.918;2023-07-31T10:33:16;3.95;;;1.13;;
49472;SDS011;67434;50.956;6.918;2023-07-31T10:35:42;3.95;;;1.35;;
49472;SDS011;67434;50.956;6.918;2023-07-31T10:38:11;3.57;;;1.60;;
49472;SDS011;67434;50.956;6.918;2023-07-31T10:40:37;5.25;;;1.90;;
49472;SDS011;67434;50.956;6.918;2023-07-31T10:43:02;2.78;;;1.58;;
49472;SDS011;67434;50.956;6.918;2023-07-31T10:45:32;2.97;;;1.70;;
49472;SDS011;67434;50.956;6.918;2023-07-31T10:48:12;4.10;;;1.58;;
49472;SDS011;67434;50.956;6.918;2023-07-31T10:50:38;5.00;;;1.60;;
49472;SDS011;67434;50.956;6.918;2023-07-31T10:53:05;3.88;;;1.38;;
49472;SDS011;67434;50.956;6.918;2023-07-31T10:55:41;3.72;;;1.50;;
49472;SDS011;67434;50.956;6.918;2023-07-31T10:58:08;2.33;;;1.40;;
49472;SDS011;67434;50.956;6.918;2023-07-31T11:00:34;2.42;;;1.42;;
49472;SDS011;67434;50.956;6.918;2023-07-31T11:05:46;1.60;;;0.88;;
49472;SDS011;67434;50.956;6.918;2023-07-31T11:10:47;1.92;;;0.77;;
49472;SDS011;67434;50.956;6.918;2023-07-31T11:13:13;1.75;;;0.65;;
49472;SDS011;67434;50.956;6.918;2023-07-31T11:15:38;3.20;;;0.90;;
49472;SDS011;67434;50.956;6.918;2023-07-31T11:18:04;1.15;;;0.65;;
49472;SDS011;67434;50.956;6.918;2023-07-31T11:20:31;2.28;;;0.60;;
49472;SDS011;67434;50.956;6.918;2023-07-31T11:22:58;1.88;;;0.93;;
49472;SDS011;67434;50.956;6.918;2023-07-31T11:25:23;3.13;;;0.70;;
49472;SDS011;67434;50.956;6.918;2023-07-31T11:27:48;3.65;;;0.50;;
49472;SDS011;67434;50.956;6.918;2023-07-31T11:30:18;1.95;;;0.55;;
49472;SDS011;67434;50.956;6.918;2023-07-31T11:32:44;2.15;;;0.63;;
49472;SDS011;67434;50.956;6.918;2023-07-31T11:35:13;1.15;;;0.52;;
49472;SDS011;67434;50.956;6.918;2023-07-31T11:37:41;1.85;;;0.60;;
49472;SDS011;67434;50.956;6.918;2023-07-31T11:40:07;2.05;;;0.90;;
49472;SDS011;67434;50.956;6.918;2023-07-31T11:42:38;2.30;;;0.50;;
49472;SDS011;67434;50.956;6.918;2023-07-31T11:45:04;0.90;;;0.30;;
49472;SDS011;67434;50.956;6.918;2023-07-31T11:47:30;1.65;;;0.65;;
49472;SDS011;67434;50.956;6.918;2023-07-31T11:50:03;0.90;;;0.40;;
49472;SDS011;67434;50.956;6.918;2023-07-31T11:52:30;2.28;;;0.70;;
49472;SDS011;67434;50.956;6.918;2023-07-31T11:54:57;1.27;;;0.50;;
49472;SDS011;67434;50.956;6.918;2023-07-31T11:57:22;1.25;;;0.40;;
49472;SDS011;67434;50.956;6.918;2023-07-31T11:59:48;0.52;;;0.30;;
49472;SDS011;67434;50.956;6.918;2023-07-31T12:02:14;0.98;;;0.70;;
49472;SDS011;67434;50.956;6.918;2023-07-31T12:04:39;1.55;;;0.40;;
49472;SDS011;67434;50.956;6.918;2023-07-31T12:07:05;0.93;;;0.40;;
49472;SDS011;67434;50.956;6.918;2023-07-31T12:09:30;0.75;;;0.30;;
49472;SDS011;67434;50.956;6.918;2023-07-31T12:11:56;1.02;;;0.38;;
49472;SDS011;67434;50.956;6.918;2023-07-31T12:14:22;0.47;;;0.25;;
49472;SDS011;67434;50.956;6.918;2023-07-31T12:16:52;0.32;;;0.20;;
49472;SDS011;67434;50.956;6.918;2023-07-31T12:19:18;0.57;;;0.38;;
49472;SDS011;67434;50.956;6.918;2023-07-31T12:21:44;2.17;;;0.82;;
49472;SDS011;67434;50.956;6.918;2023-07-31T12:24:09;1.45;;;0.30;;
49472;SDS011;67434;50.956;6.918;2023-07-31T12:26:35;0.55;;;0.50;;
49472;SDS011;67434;50.956;6.918;2023-07-31T12:29:00;1.93;;;0.60;;
49472;SDS011;67434;50.956;6.918;2023-07-31T12:31:27;2.03;;;0.50;;
49472;SDS011;67434;50.956;6.918;2023-07-31T12:33:53;1.23;;;0.47;;
49472;SDS011;67434;50.956;6.918;2023-07-31T12:36:22;0.90;;;0.50;;
49472;SDS011;67434;50.956;6.918;2023-07-31T12:38:47;1.55;;;0.40;;
49472;SDS011;67434;50.956;6.918;2023-07-31T12:41:14;0.50;;;0.40;;
49472;SDS011;67434;50.956;6.918;2023-07-31T12:43:40;2.73;;;0.50;;
49472;SDS011;67434;50.956;6.918;2023-07-31T12:46:05;2.92;;;0.63;;
49472;SDS011;67434;50.956;6.918;2023-07-31T12:48:32;1.60;;;0.68;;
49472;SDS011;67434;50.956;6.918;2023-07-31T12:50:58;1.00;;;0.60;;
49472;SDS011;67434;50.956;6.918;2023-07-31T12:53:23;1.70;;;0.80;;
49472;SDS011;67434;50.956;6.918;2023-07-31T12:55:48;1.67;;;0.80;;
49472;SDS011;67434;50.956;6.918;2023-07-31T12:58:13;2.08;;;0.73;;
49472;SDS011;67434;50.956;6.918;2023-07-31T13:00:39;2.00;;;1.02;;
49472;SDS011;67434;50.956;6.918;2023-07-31T13:03:04;2.30;;;0.80;;
49472;SDS011;67434;50.956;6.918;2023-07-31T13:05:29;3.05;;;0.80;;
49472;SDS011;67434;50.956;6.918;2023-07-31T13:07:55;2.50;;;1.50;;
49472;SDS011;67434;50.956;6.918;2023-07-31T13:10:21;4.65;;;0.95;;
49472;SDS011;67434;50.956;6.918;2023-07-31T13:12:46;7.78;;;1.30;;
49472;SDS011;67434;50.956;6.918;2023-07-31T13:15:12;3.75;;;2.08;;
49472;SDS011;67434;50.956;6.918;2023-07-31T13:17:37;4.25;;;1.65;;
49472;SDS011;67434;50.956;6.918;2023-07-31T13:20:02;5.85;;;1.65;;
49472;SDS011;67434;50.956;6.918;2023-07-31T13:22:28;3.25;;;1.42;;
49472;SDS011;67434;50.956;6.918;2023-07-31T13:24:54;3.15;;;1.33;;
49472;SDS011;67434;50.956;6.918;2023-07-31T13:27:19;2.77;;;1.40;;
49472;SDS011;67434;50.956;6.918;2023-07-31T13:29:52;4.80;;;1.30;;
49472;SDS011;67434;50.956;6.918;2023-07-31T13:32:18;4.55;;;2.80;;
49472;SDS011;67434;50.956;6.918;2023-07-31T13:34:44;4.80;;;2.58;;
49472;SDS011;67434;50.956;6.918;2023-07-31T13:37:10;2.78;;;1.35;;
49472;SDS011;67434;50.956;6.918;2023-07-31T13:39:35;4.18;;;1.42;;
49472;SDS011;67434;50.956;6.918;2023-07-31T13:42:01;2.78;;;1.08;;
49472;SDS011;67434;50.956;6.918;2023-07-31T13:44:27;2.08;;;1.20;;
49472;SDS011;67434;50.956;6.918;2023-07-31T13:46:52;1.85;;;1.17;;
49472;SDS011;67434;50.956;6.918;2023-07-31T13:49:17;2.70;;;1.00;;
49472;SDS011;67434;50.956;6.918;2023-07-31T13:51:42;3.58;;;1.60;;
49472;SDS011;67434;50.956;6.918;2023-07-31T13:54:08;4.25;;;1.25;;
49472;SDS011;67434;50.956;6.918;2023-07-31T13:56:33;2.80;;;1.23;;
49472;SDS011;67434;50.956;6.918;2023-07-31T13:59:01;3.15;;;1.63;;
49472;SDS011;67434;50.956;6.918;2023-07-31T14:01:27;4.10;;;2.10;;
49472;SDS011;67434;50.956;6.918;2023-07-31T14:03:52;6.10;;;1.87;;
49472;SDS011;67434;50.956;6.918;2023-07-31T14:06:17;2.77;;;1.60;;
49472;SDS011;67434;50.956;6.918;2023-07-31T14:08:42;5.10;;;1.70;;
49472;SDS011;67434;50.956;6.918;2023-07-31T14:11:08;7.65;;;2.33;;
49472;SDS011;67434;50.956;6.918;2023-07-31T14:13:33;2.50;;;1.30;;
49472;SDS011;67434;50.956;6.918;2023-07-31T14:16:01;2.20;;;1.50;;
49472;SDS011;67434;50.956;6.918;2023-07-31T14:18:26;3.05;;;1.25;;
49472;SDS011;67434;50.956;6.918;2023-07-31T14:20:51;2.80;;;1.30;;
49472;SDS011;67434;50.956;6.918;2023-07-31T14:23:16;6.38;;;1.77;;
49472;SDS011;67434;50.956;6.918;2023-07-31T14:25:42;3.80;;;1.40;;
49472;SDS011;67434;50.956;6.918;2023-07-31T14:28:07;3.00;;;1.63;;
49472;SDS011;67434;50.956;6.918;2023-07-31T14:30:32;3.17;;;1.53;;
49472;SDS011;67434;50.956;6.918;2023-07-31T14:32:57;2.10;;;1.50;;
49472;SDS011;67434;50.956;6.918;2023-07-31T14:35:23;5.85;;;1.65;;
49472;SDS011;67434;50.956;6.918;2023-07-31T14:37:48;7.47;;;1.52;;
49472;SDS011;67434;50.956;6.918;2023-07-31T14:40:13;5.40;;;1.30;;
49472;SDS011;67434;50.956;6.918;2023-07-31T14:42:39;3.42;;;1.52;;
49472;SDS011;67434;50.956;6.918;2023-07-31T14:45:05;4.07;;;2.35;;
49472;SDS011;67434;50.956;6.918;2023-07-31T14:47:31;2.88;;;2.03;;
49472;SDS011;67434;50.956;6.918;2023-07-31T14:49:57;2.67;;;1.77;;
49472;SDS011;67434;50.956;6.918;2023-07-31T14:52:23;2.70;;;1.75;;